sensor_id;sensor_type;location;lat;lon;timestamp;temperature;humidity
10441;DHT22;5268;49.346;9.522;2023-04-15T03:07:22;5.20;99.90
10441;DHT22;5268;49.346;9.522;2023-04-15T03:12:24;5.20;99.90
10441;DHT22;5268;49.346;9.522;2023-04-15T03:17:26;5.20;99.90
10441;DHT22;5268;49.346;9.522;2023-04-15T03:22:29;5.20;99.90
10441;DHT22;5268;49.346;9.522;2023-04-15T03:27:31;5.20;99.90
10441;DHT22;5268;49.346;9.522;2023-04-15T03:32:34;5.10;99.90
10441;DHT22;5268;49.346;9.522;2023-04-15T03:37:37;5.20;99.90
10441;DHT22;5268;49.346;9.522;2023-04-15T03:42:39;5.20;99.90
10441;DHT22;5268;49.346;9.522;2023-04-15T03:47:41;5.10;99.90
10441;DHT22;5268;49.346;9.522;2023-04-15T03:52:44;5.10;99.90
10441;DHT22;5268;49.346;9.522;2023-04-15T03:57:46;5.10;99.90
10441;DHT22;5268;49.346;9.522;2023-04-15T04:02:48;5.10;99.90
10441;DHT22;5268;49.346;9.522;2023-04-15T04:07:52;5.10;99.90
10441;DHT22;5268;49.346;9.522;2023-04-15T04:12:54;5.10;99.90
10441;DHT22;5268;49.346;9.522;2023-04-15T04:17:56;5.10;99.90
10441;DHT22;5268;49.346;9.522;2023-04-15T04:22:59;5.10;99.90
10441;DHT22;5268;49.346;9.522;2023-04-15T04:28:01;5.10;99.90
10441;DHT22;5268;49.346;9.522;2023-04-15T04:33:03;5.10;99.90
10441;DHT22;5268;49.346;9.522;2023-04-15T04:38:06;5.10;99.90
10441;DHT22;5268;49.346;9.522;2023-04-15T04:43:08;5.10;99.90
10441;DHT22;5268;49.346;9.522;2023-04-15T04:48:10;5.10;99.90
10441;DHT22;5268;49.346;9.522;2023-04-15T04:53:14;5.10;99.90
10441;DHT22;5268;49.346;9.522;2023-04-15T04:58:17;5.10;99.90
10441;DHT22;5268;49.346;9.522;2023-04-15T05:03:20;5.10;99.90
10441;DHT22;5268;49.346;9.522;2023-04-15T05:08:23;5.10;99.90
10441;DHT22;5268;49.346;9.522;2023-04-15T05:13:25;5.20;99.90
10441;DHT22;5268;49.346;9.522;2023-04-15T05:18:28;5.20;99.90
10441;DHT22;5268;49.346;9.522;2023-04-15T05:23:32;5.20;99.90
10441;DHT22;5268;49.346;9.522;2023-04-15T05:28:34;5.30;99.90
10441;DHT22;5268;49.346;9.522;2023-04-15T05:33:36;5.30;99.90
10441;DHT22;5268;49.346;9.522;2023-04-15T05:38:39;5.40;99.90
10441;DHT22;5268;49.346;9.522;2023-04-15T05:43:42;5.50;99.90
10441;DHT22;5268;49.346;9.522;2023-04-15T05:48:44;5.50;99.90
10441;DHT22;5268;49.346;9.522;2023-04-15T05:53:47;5.60;99.90
10441;DHT22;5268;49.346;9.522;2023-04-15T05:58:50;5.70;99.90
10441;DHT22;5268;49.346;9.522;2023-04-15T06:03:52;5.80;99.90
10441;DHT22;5268;49.346;9.522;2023-04-15T06:08:55;5.90;99.90
10441;DHT22;5268;49.346;9.522;2023-04-15T06:13:57;6.10;99.90
10441;DHT22;5268;49.346;9.522;2023-04-15T06:18:59;6.20;99.90
10441;DHT22;5268;49.346;9.522;2023-04-15T06:24:02;6.30;99.90
10441;DHT22;5268;49.346;9.522;2023-04-15T06:29:05;6.50;99.90
10441;DHT22;5268;49.346;9.522;2023-04-15T06:34:07;6.60;99.90
10441;DHT22;5268;49.346;9.522;2023-04-15T06:39:10;6.70;99.90
10441;DHT22;5268;49.346;9.522;2023-04-15T06:44:12;6.80;99.90
10441;DHT22;5268;49.346;9.522;2023-04-15T06:49:14;6.80;99.90
10441;DHT22;5268;49.346;9.522;2023-04-15T06:54:18;6.90;99.90
10441;DHT22;5268;49.346;9.522;2023-04-15T06:59:20;7.00;99.90
10441;DHT22;5268;49.346;9.522;2023-04-15T07:04:22;7.10;99.90
10441;DHT22;5268;49.346;9.522;2023-04-15T07:09:25;7.20;99.90
10441;DHT22;5268;49.346;9.522;2023-04-15T07:14:27;7.30;99.90
10441;DHT22;5268;49.346;9.522;2023-04-15T07:19:29;7.30;99.90
10441;DHT22;5268;49.346;9.522;2023-04-15T07:24:33;7.50;99.90
10441;DHT22;5268;49.346;9.522;2023-04-15T07:29:35;7.60;99.90
10441;DHT22;5268;49.346;9.522;2023-04-15T07:34:37;7.80;99.90
10441;DHT22;5268;49.346;9.522;2023-04-15T07:39:40;8.00;99.90
10441;DHT22;5268;49.346;9.522;2023-04-15T07:44:43;8.40;99.90
10441;DHT22;5268;49.346;9.522;2023-04-15T07:49:45;8.90;99.90
10441;DHT22;5268;49.346;9.522;2023-04-15T07:54:48;9.50;99.90
10441;DHT22;5268;49.346;9.522;2023-04-15T07:59:50;10.10;99.90
10441;DHT22;5268;49.346;9.522;2023-04-15T08:04:52;10.70;99.90
10441;DHT22;5268;49.346;9.522;2023-04-15T08:09:55;11.00;99.90
10441;DHT22;5268;49.346;9.522;2023-04-15T08:14:58;11.20;99.90
10441;DHT22;5268;49.346;9.522;2023-04-15T08:20:00;11.20;99.90
10441;DHT22;5268;49.346;9.522;2023-04-15T08:25:04;11.10;99.90
10441;DHT22;5268;49.346;9.522;2023-04-15T08:30:08;11.10;99.90
10441;DHT22;5268;49.346;9.522;2023-04-15T08:35:10;11.10;99.90
10441;DHT22;5268;49.346;9.522;2023-04-15T08:40:13;11.10;99.90
10441;DHT22;5268;49.346;9.522;2023-04-15T08:45:17;11.10;99.90
10441;DHT22;5268;49.346;9.522;2023-04-15T08:50:19;11.10;99.90
10441;DHT22;5268;49.346;9.522;2023-04-15T08:55:24;11.20;99.90
10441;DHT22;5268;49.346;9.522;2023-04-15T09:00:30;11.30;99.90
10441;DHT22;5268;49.346;9.522;2023-04-15T09:05:32;11.30;99.90
10441;DHT22;5268;49.346;9.522;2023-04-15T09:10:36;11.30;99.90
10441;DHT22;5268;49.346;9.522;2023-04-15T09:15:38;11.40;99.90
10441;DHT22;5268;49.346;9.522;2023-04-15T09:20:40;11.50;99.90
10441;DHT22;5268;49.346;9.522;2023-04-15T09:25:44;11.60;99.90
10441;DHT22;5268;49.346;9.522;2023-04-15T09:30:50;11.70;99.90
10441;DHT22;5268;49.346;9.522;2023-04-15T09:35:57;11.80;99.90
10441;DHT22;5268;49.346;9.522;2023-04-15T09:41:01;11.90;99.90
10441;DHT22;5268;49.346;9.522;2023-04-15T09:46:03;12.00;99.90
10441;DHT22;5268;49.346;9.522;2023-04-15T09:51:06;12.10;99.90
10441;DHT22;5268;49.346;9.522;2023-04-15T09:56:09;12.20;99.90
10441;DHT22;5268;49.346;9.522;2023-04-15T10:01:11;12.30;99.90
10441;DHT22;5268;49.346;9.522;2023-04-15T10:06:13;12.40;99.90
10441;DHT22;5268;49.346;9.522;2023-04-15T10:11:18;12.40;99.90
10441;DHT22;5268;49.346;9.522;2023-04-15T10:16:20;12.40;99.90
10441;DHT22;5268;49.346;9.522;2023-04-15T10:21:23;12.40;99.90
10441;DHT22;5268;49.346;9.522;2023-04-15T10:26:27;12.40;99.90
10441;DHT22;5268;49.346;9.522;2023-04-15T10:31:29;12.40;99.90
10441;DHT22;5268;49.346;9.522;2023-04-15T10:36:32;12.50;99.90
10441;DHT22;5268;49.346;9.522;2023-04-15T10:41:35;12.60;99.90
10441;DHT22;5268;49.346;9.522;2023-04-15T10:46:39;12.70;99.90
10441;DHT22;5268;49.346;9.522;2023-04-15T10:51:42;12.90;99.90
10441;DHT22;5268;49.346;9.522;2023-04-15T10:56:50;13.20;99.90
10441;DHT22;5268;49.346;9.522;2023-04-15T11:01:54;13.40;99.90
10441;DHT22;5268;49.346;9.522;2023-04-15T11:07:05;13.50;99.90
10441;DHT22;5268;49.346;9.522;2023-04-15T11:12:09;13.50;99.90
10441;DHT22;5268;49.346;9.522;2023-04-15T11:17:11;13.40;99.90
10441;DHT22;5268;49.346;9.522;2023-04-15T11:22:13;13.30;99.90
10441;DHT22;5268;49.346;9.522;2023-04-15T11:27:21;13.20;99.90
10441;DHT22;5268;49.346;9.522;2023-04-15T11:32:23;13.20;99.90
10441;DHT22;5268;49.346;9.522;2023-04-15T11:37:29;13.20;99.90
10441;DHT22;5268;49.346;9.522;2023-04-15T11:42:32;13.10;99.90
10441;DHT22;5268;49.346;9.522;2023-04-15T11:47:34;13.10;99.90
10441;DHT22;5268;49.346;9.522;2023-04-15T11:52:37;13.10;99.90
10441;DHT22;5268;49.346;9.522;2023-04-15T11:57:40;13.00;99.90
10441;DHT22;5268;49.346;9.522;2023-04-15T12:02:43;13.00;99.90
10441;DHT22;5268;49.346;9.522;2023-04-15T12:07:58;12.90;99.90
10441;DHT22;5268;49.346;9.522;2023-04-15T12:13:05;12.80;99.90
10441;DHT22;5268;49.346;9.522;2023-04-15T12:18:16;12.70;99.90
10441;DHT22;5268;49.346;9.522;2023-04-15T12:23:20;12.60;99.90
10441;DHT22;5268;49.346;9.522;2023-04-15T12:28:23;12.60;99.90
10441;DHT22;5268;49.346;9.522;2023-04-15T12:33:32;12.60;99.90
10441;DHT22;5268;49.346;9.522;2023-04-15T12:38:34;12.50;99.90
10441;DHT22;5268;49.346;9.522;2023-04-15T12:43:38;12.50;99.90
10441;DHT22;5268;49.346;9.522;2023-04-15T12:48:42;12.60;99.90
10441;DHT22;5268;49.346;9.522;2023-04-15T12:53:53;12.60;99.90
10441;DHT22;5268;49.346;9.522;2023-04-15T12:58:58;12.70;99.90
10441;DHT22;5268;49.346;9.522;2023-04-15T13:04:03;12.70;99.90
10441;DHT22;5268;49.346;9.522;2023-04-15T13:09:06;12.60;99.90
10441;DHT22;5268;49.346;9.522;2023-04-15T13:14:10;12.40;99.90
10441;DHT22;5268;49.346;9.522;2023-04-15T13:19:14;12.20;99.90
10441;DHT22;5268;49.346;9.522;2023-04-15T13:24:16;12.10;99.90
10441;DHT22;5268;49.346;9.522;2023-04-15T13:29:20;12.00;99.90
10441;DHT22;5268;49.346;9.522;2023-04-15T13:34:22;11.90;99.90
10441;DHT22;5268;49.346;9.522;2023-04-15T13:39:25;11.80;99.90
10441;DHT22;5268;49.346;9.522;2023-04-15T13:44:28;11.60;99.90
10441;DHT22;5268;49.346;9.522;2023-04-15T13:49:31;11.40;99.90
10441;DHT22;5268;49.346;9.522;2023-04-15T13:54:33;11.20;99.90
10441;DHT22;5268;49.346;9.522;2023-04-15T13:59:36;11.10;99.90
10441;DHT22;5268;49.346;9.522;2023-04-15T14:04:38;10.90;99.90
10441;DHT22;5268;49.346;9.522;2023-04-15T14:09:41;10.90;99.90
10441;DHT22;5268;49.346;9.522;2023-04-15T14:14:45;10.80;99.90
10441;DHT22;5268;49.346;9.522;2023-04-15T14:19:47;10.70;99.90
10441;DHT22;5268;49.346;9.522;2023-04-15T14:24:50;10.70;99.90
10441;DHT22;5268;49.346;9.522;2023-04-15T14:29:56;10.60;99.90
10441;DHT22;5268;49.346;9.522;2023-04-15T14:34:59;10.50;99.90
10441;DHT22;5268;49.346;9.522;2023-04-15T14:40:05;10.50;99.90
10441;DHT22;5268;49.346;9.522;2023-04-15T14:45:10;10.50;99.90
10441;DHT22;5268;49.346;9.522;2023-04-15T14:50:12;10.50;99.90
10441;DHT22;5268;49.346;9.522;2023-04-15T14:55:15;10.40;99.90
10441;DHT22;5268;49.346;9.522;2023-04-15T15:00:18;10.40;99.90
10441;DHT22;5268;49.346;9.522;2023-04-15T15:05:21;10.40;99.90
10441;DHT22;5268;49.346;9.522;2023-04-15T15:10:23;10.40;99.90
10441;DHT22;5268;49.346;9.522;2023-04-15T15:15:27;10.40;99.90
10441;DHT22;5268;49.346;9.522;2023-04-15T15:20:29;10.40;99.90
10441;DHT22;5268;49.346;9.522;2023-04-15T15:25:32;10.40;99.90
10441;DHT22;5268;49.346;9.522;2023-04-15T15:30:36;10.40;99.90
10441;DHT22;5268;49.346;9.522;2023-04-15T15:35:38;10.40;99.90
10441;DHT22;5268;49.346;9.522;2023-04-15T15:40:40;10.40;99.90
10441;DHT22;5268;49.346;9.522;2023-04-15T15:45:44;10.40;99.90
10441;DHT22;5268;49.346;9.522;2023-04-15T15:50:46;10.40;99.90
10441;DHT22;5268;49.346;9.522;2023-04-15T15:55:48;10.30;99.90
10441;DHT22;5268;49.346;9.522;2023-04-15T16:00:51;10.30;99.90
10441;DHT22;5268;49.346;9.522;2023-04-15T16:05:54;10.30;99.90
10441;DHT22;5268;49.346;9.522;2023-04-15T16:10:56;10.30;99.90
10441;DHT22;5268;49.346;9.522;2023-04-15T16:16:00;10.30;99.90
10441;DHT22;5268;49.346;9.522;2023-04-15T16:21:02;10.30;99.90
10441;DHT22;5268;49.346;9.522;2023-04-15T16:26:04;10.30;99.90
10441;DHT22;5268;49.346;9.522;2023-04-15T16:31:07;10.30;99.90
10441;DHT22;5268;49.346;9.522;2023-04-15T16:36:11;10.20;99.90
10441;DHT22;5268;49.346;9.522;2023-04-15T16:41:14;10.20;99.90
10441;DHT22;5268;49.346;9.522;2023-04-15T16:46:17;10.20;99.90
10441;DHT22;5268;49.346;9.522;2023-04-15T16:51:19;10.20;99.90
10441;DHT22;5268;49.346;9.522;2023-04-15T16:56:21;10.20;99.90
10441;DHT22;5268;49.346;9.522;2023-04-15T17:01:25;10.20;99.90
10441;DHT22;5268;49.346;9.522;2023-04-15T17:06:27;10.20;99.90
10441;DHT22;5268;49.346;9.522;2023-04-15T17:11:30;10.10;99.90
10441;DHT22;5268;49.346;9.522;2023-04-15T17:16:34;10.10;99.90
10441;DHT22;5268;49.346;9.522;2023-04-15T17:21:36;10.10;99.90
10441;DHT22;5268;49.346;9.522;2023-04-15T17:26:38;10.00;99.90
10441;DHT22;5268;49.346;9.522;2023-04-15T17:31:42;10.00;99.90
10441;DHT22;5268;49.346;9.522;2023-04-15T17:36:44;9.90;99.90
10441;DHT22;5268;49.346;9.522;2023-04-15T17:41:46;9.90;99.90
10441;DHT22;5268;49.346;9.522;2023-04-15T17:46:49;9.90;99.90
10441;DHT22;5268;49.346;9.522;2023-04-15T17:51:52;9.80;99.90
10441;DHT22;5268;49.346;9.522;2023-04-15T17:56:56;9.80;99.90
10441;DHT22;5268;49.346;9.522;2023-04-15T18:02:00;9.80;99.90
10441;DHT22;5268;49.346;9.522;2023-04-15T18:07:03;9.80;99.90
10441;DHT22;5268;49.346;9.522;2023-04-15T18:12:05;9.80;99.90
10441;DHT22;5268;49.346;9.522;2023-04-15T18:17:10;9.70;99.90
10441;DHT22;5268;49.346;9.522;2023-04-15T18:22:13;9.70;99.90
10441;DHT22;5268;49.346;9.522;2023-04-15T18:27:15;9.70;99.90
10441;DHT22;5268;49.346;9.522;2023-04-15T18:32:18;9.60;99.90
10441;DHT22;5268;49.346;9.522;2023-04-15T18:37:20;9.60;99.90
10441;DHT22;5268;49.346;9.522;2023-04-15T18:42:23;9.60;99.90
10441;DHT22;5268;49.346;9.522;2023-04-15T18:47:26;9.60;99.90
10441;DHT22;5268;49.346;9.522;2023-04-15T18:52:28;9.50;99.90
10441;DHT22;5268;49.346;9.522;2023-04-15T18:57:32;9.50;99.90
10441;DHT22;5268;49.346;9.522;2023-04-15T19:02:35;9.50;99.90
10441;DHT22;5268;49.346;9.522;2023-04-15T19:07:38;9.50;99.90
10441;DHT22;5268;49.346;9.522;2023-04-15T19:12:40;9.50;99.90
10441;DHT22;5268;49.346;9.522;2023-04-15T19:17:44;9.50;99.90
10441;DHT22;5268;49.346;9.522;2023-04-15T19:22:46;9.50;99.90
10441;DHT22;5268;49.346;9.522;2023-04-15T19:27:48;9.50;99.90
10441;DHT22;5268;49.346;9.522;2023-04-15T19:32:51;9.50;99.90
10441;DHT22;5268;49.346;9.522;2023-04-15T19:37:53;9.50;99.90
10441;DHT22;5268;49.346;9.522;2023-04-15T19:42:55;9.50;99.90
10441;DHT22;5268;49.346;9.522;2023-04-15T19:47:59;9.50;99.90
10441;DHT22;5268;49.346;9.522;2023-04-15T19:53:01;9.50;99.90
10441;DHT22;5268;49.346;9.522;2023-04-15T19:58:03;9.50;99.90
10441;DHT22;5268;49.346;9.522;2023-04-15T20:03:06;9.40;99.90
10441;DHT22;5268;49.346;9.522;2023-04-15T20:08:08;9.40;99.90
10441;DHT22;5268;49.346;9.522;2023-04-15T20:13:10;9.40;99.90
10441;DHT22;5268;49.346;9.522;2023-04-15T20:18:14;9.40;99.90
10441;DHT22;5268;49.346;9.522;2023-04-15T20:23:16;9.40;99.90
10441;DHT22;5268;49.346;9.522;2023-04-15T20:28:18;9.40;99.90
10441;DHT22;5268;49.346;9.522;2023-04-15T20:33:23;9.40;99.90
10441;DHT22;5268;49.346;9.522;2023-04-15T20:38:25;9.40;99.90
10441;DHT22;5268;49.346;9.522;2023-04-15T20:43:27;9.40;99.90
10441;DHT22;5268;49.346;9.522;2023-04-15T20:48:30;9.40;99.90
10441;DHT22;5268;49.346;9.522;2023-04-15T20:53:32;9.40;99.90
10441;DHT22;5268;49.346;9.522;2023-04-15T20:58:34;9.40;99.90
10441;DHT22;5268;49.346;9.522;2023-04-15T21:03:39;9.40;99.90
10441;DHT22;5268;49.346;9.522;2023-04-15T21:08:41;9.40;99.90
10441;DHT22;5268;49.346;9.522;2023-04-15T21:13:44;9.40;99.90
10441;DHT22;5268;49.346;9.522;2023-04-15T21:18:48;9.40;99.90
10441;DHT22;5268;49.346;9.522;2023-04-15T21:23:50;9.40;99.90
10441;DHT22;5268;49.346;9.522;2023-04-15T21:28:52;9.40;99.90
10441;DHT22;5268;49.346;9.522;2023-04-15T21:33:55;9.40;99.90
10441;DHT22;5268;49.346;9.522;2023-04-15T21:38:57;9.40;99.90
10441;DHT22;5268;49.346;9.522;2023-04-15T21:43:59;9.40;99.90
10441;DHT22;5268;49.346;9.522;2023-04-15T21:49:03;9.40;99.90
10441;DHT22;5268;49.346;9.522;2023-04-15T21:54:06;9.40;99.90
